< Typhoon 198604 1986 Season Typhoon 198606 >
Typhoon 198605 (NANCY)
General InformationTrack Information on Google MapsDetailed Wind InformationList of All Images || Disaster Info.ResourceGoogle EarthGE AnimationAtom FeedGeoJSON
Detalied Best Track (Time Zone = UTC)
Year Month Day Hour Lat. Long. Pressure (hPa) Wind (kt) Class Image Chart
1986 6 20 18 10.2 134.0 1004 0 2 Image Chart
1986 6 21 00 10.8 132.8 1004 0 2 Image Chart
1986 6 21 06 11.6 131.8 1002 0 2 Image Chart
1986 6 21 12 12.7 130.4 1002 0 2 Image Chart
1986 6 21 18 14.0 129.0 998 0 2 Image Chart
1986 6 22 00 15.4 128.0 990 45 3 Image Chart
1986 6 22 06 16.7 126.3 985 50 4 Image Chart
1986 6 22 12 17.8 125.3 980 50 4 Image Chart
1986 6 22 18 19.0 124.0 975 55 4 Image Chart
1986 6 23 00 20.1 123.0 970 60 4 Image Chart
1986 6 23 06 21.3 122.2 960 60 4 Image Chart
1986 6 23 12 22.4 121.7 955 70 5 Image Chart
1986 6 23 18 23.6 121.6 960 70 5 Image Chart
1986 6 24 00 25.5 121.7 975 60 4 Image Chart
1986 6 24 06 28.1 121.8 985 50 4 Image Chart
1986 6 24 12 30.0 123.2 990 45 3 Image Chart
1986 6 24 18 32.0 125.5 994 45 3 Image Chart
1986 6 25 00 35.5 129.0 998 0 6 Image Chart
1986 6 25 06 36.0 132.0 998 0 6 Image Chart
1986 6 25 12 37.0 136.0 998 0 6 Image Chart
Japan Meteorological Agency Best Track Data | Correction Date : 1992-10-21
< Typhoon 198604 1986 Season Typhoon 198606 >

Help